Latest Weather Observations for Nowra

IDN60901

Issued at 10:21 am EST Sunday 31 July 2016 (issued every 10 minutes, with the page automatically refreshed every 10 minutes)

About weather observations | Map of Canberra area stations | Latest observations for Canberra area | Other Formats
Station Details ID: 068072 Name: NOWRA RAN AIR STATION AWS Lat: -34.95 Lon: 150.54 Height: 109.0 m
Data from the previous 72 hours. | See also: Recent months at Nowra
Date/Time
EST
Temp
°C
App
Temp
°C
Dew
Point
°C
Rel
Hum
%
Delta-T
°C
Wind Press
QNH
hPa
Press
MSL
hPa
Rain since
9am
mm
Dir  Spd
km/h
Gust
km/h
Spd
kts
Gust
kts
31/10:00am 13.6 10.2 6.0 60 3.6 NNW 13 17 7 9 1016.6 - 0.0
31/09:30am 13.3 10.6 5.5 59 3.7 WNW 9 15 5 8 1016.6 - 0.0
31/09:00am 12.7 9.6 5.6 62 3.3 WNW 11 15 6 8 1016.6 1016.7 0.0
31/08:30am 12.3 9.6 5.5 63 3.2 NW 9 17 5 9 1016.7 - 0.0
31/08:00am 11.9 7.3 5.5 65 3.0 WNW 19 24 10 13 1016.8 - 0.0
31/07:30am 11.9 7.0 5.3 64 3.1 WNW 20 28 11 15 1016.6 - 0.0
31/07:00am 12.1 5.7 5.3 63 3.2 WNW 28 35 15 19 1016.6 - 0.0
31/06:53am 12.2 5.8 5.1 62 3.3 WNW 28 35 15 19 1016.4 - 0.0
31/06:30am 12.4 9.1 4.6 59 3.6 NNW 11 17 6 9 1015.9 - 0.0
31/06:00am 12.7 10.3 4.4 57 3.8 NNE 6 9 3 5 1015.7 1015.7 0.0
31/05:30am 12.7 10.8 4.9 59 3.6 N 4 11 2 6 1015.0 - 0.0
31/05:00am 12.4 10.5 5.1 61 3.4 N 4 11 2 6 1014.8 - 0.0
31/04:30am 12.5 9.6 4.7 59 3.6 N 9 13 5 7 1015.1 - 0.0
31/04:00am 12.1 8.8 4.8 61 3.4 NNW 11 15 6 8 1014.8 - 0.0
31/03:30am 12.3 7.9 5.0 61 3.4 N 17 20 9 11 1014.7 - 0.0
31/03:00am 11.3 7.8 5.4 67 2.7 NNW 13 19 7 10 1015.1 1015.1 0.0
31/02:30am 10.8 7.0 6.0 72 2.2 N 15 20 8 11 1015.8 - 0.0
31/02:00am 10.2 7.7 6.4 77 1.8 NNW 9 13 5 7 1016.7 - 0.0
31/01:30am 10.0 7.1 6.5 79 1.6 NNW 11 15 6 8 1016.9 - 0.0
31/01:00am 9.3 6.0 6.6 83 1.3 NW 13 17 7 9 1017.1 - 0.0
31/12:30am 8.9 5.3 6.9 87 0.9 NW 15 17 8 9 1017.2 - 0.0
31/12:00am 8.3 5.0 6.6 89 0.8 WNW 13 15 7 8 1017.6 1017.7 0.0
 
Date/Time
EST
Temp
°C
App
Temp
°C
Dew
Point
°C
Rel
Hum
%
Delta-T
°C
Wind Press
QNH
hPa
Press
MSL
hPa
Rain since
9am
mm
Dir  Spd
km/h
Gust
km/h
Spd
kts
Gust
kts
30/11:30pm 8.0 4.7 6.3 89 0.8 NW 13 15 7 8 1017.8 - 0.0
30/11:00pm 8.8 4.7 6.4 85 1.1 NW 17 19 9 10 1018.2 - 0.0
30/10:30pm 8.6 4.6 6.7 88 0.9 NW 17 20 9 11 1018.6 - 0.0
30/10:00pm 8.8 5.2 6.6 86 1.0 NW 15 17 8 9 1018.9 - 0.0
30/09:30pm 8.7 4.4 6.8 88 0.9 NW 19 20 10 11 1018.9 - 0.0
30/09:00pm 6.6 5.5 5.2 91 0.6 CALM 0 0 0 0 1019.0 1019.1 0.0
30/08:30pm 7.5 6.3 6.4 93 0.5 NE 2 7 1 4 1018.8 - 0.0
30/08:00pm 6.6 5.6 5.4 92 0.5 CALM 0 0 0 0 1018.8 - 0.0
30/07:30pm 7.6 6.7 6.1 90 0.7 CALM 0 0 0 0 1018.6 - 0.0
30/07:00pm 7.8 6.9 5.9 88 0.9 CALM 0 2 0 1 1018.8 - 0.0
30/06:30pm 7.6 6.6 5.7 88 0.9 CALM 0 0 0 0 1019.1 - 0.0
30/06:00pm 8.7 7.7 5.8 82 1.3 CALM 0 0 0 0 1018.9 1019.0 0.0
30/05:30pm 12.0 10.0 6.3 68 2.7 NE 6 11 3 6 1018.8 - 0.0
30/05:00pm 12.4 8.6 6.0 65 3.0 NNE 15 17 8 9 1018.5 - 0.0
30/04:30pm 14.4 9.8 5.5 55 4.2 NE 19 24 10 13 1018.7 - 0.0
30/04:00pm 15.6 10.9 5.2 50 5.0 ENE 19 24 10 13 1019.0 - 0.0
30/03:30pm 17.2 14.8 4.2 42 6.1 N 6 9 3 5 1019.4 - 0.0
30/03:00pm 17.0 13.8 3.3 40 6.3 NNW 9 11 5 6 1019.7 1019.8 0.0
30/02:30pm 17.6 15.0 4.2 41 6.4 NW 7 13 4 7 1019.4 - 0.0
30/02:00pm 17.2 14.1 3.5 40 6.4 NNW 9 13 5 7 1019.5 - 0.0
30/01:30pm 16.7 14.9 3.7 42 6.1 S 2 7 1 4 1020.1 - 0.0
30/01:00pm 16.6 14.2 4.3 44 5.8 ESE 6 13 3 7 1020.5 - 0.0
30/12:30pm 16.3 13.5 2.3 39 6.3 ESE 6 15 3 8 1021.1 - 0.0
30/12:00pm 15.7 12.4 2.5 41 5.9 S 9 15 5 8 1021.5 1021.6 0.0
30/11:30am 15.5 14.3 4.8 49 5.1 CALM 0 0 0 0 1022.1 - 0.0
30/11:00am 14.5 11.3 5.3 54 4.4 NW 11 17 6 9 1022.5 - 0.0
30/10:30am 13.6 9.6 5.0 56 4.0 WNW 15 19 8 10 1022.8 - 0.0
30/10:00am 12.3 7.6 5.2 62 3.3 WNW 19 24 10 13 1023.0 - 0.0
30/09:30am 11.0 6.0 4.5 64 2.9 NW 20 26 11 14 1023.1 - 0.0
30/09:00am 9.8 4.8 4.4 69 2.4 NW 20 28 11 15 1022.9 1023.0 0.0
30/08:30am 9.0 4.1 4.2 72 2.1 NW 19 28 10 15 1023.0 - 0.0
30/08:00am 8.3 3.2 4.3 76 1.8 NW 20 28 11 15 1022.8 - 0.0
30/07:30am 7.3 2.4 4.1 80 1.4 NW 19 26 10 14 1022.7 - 0.0
30/07:00am 7.0 1.5 4.1 82 1.3 NW 22 28 12 15 1022.5 - 0.0
30/06:30am 7.1 1.3 4.2 82 1.3 NW 24 32 13 17 1022.1 - 0.0
30/06:00am 7.3 1.5 4.3 81 1.3 NW 24 33 13 18 1021.9 1022.0 0.0
30/05:30am 7.5 1.6 4.1 79 1.5 WNW 24 33 13 18 1021.5 - 0.0
30/05:00am 7.4 1.6 4.2 80 1.4 NW 24 30 13 16 1021.3 - 0.0
30/04:30am 7.6 2.1 4.2 79 1.5 NW 22 26 12 14 1020.9 - 0.0
30/04:00am 8.0 2.2 4.2 77 1.7 WNW 24 28 13 15 1021.0 - 0.0
30/03:30am 8.3 2.4 4.1 75 1.8 WNW 24 32 13 17 1020.8 - 0.0
30/03:00am 8.3 2.4 4.1 75 1.8 WNW 24 30 13 16 1020.9 1021.0 0.0
30/02:30am 8.5 3.0 4.1 74 1.9 NW 22 28 12 15 1020.9 - 0.0
30/02:00am 8.8 3.0 4.2 73 2.0 NW 24 28 13 15 1020.9 - 0.0
30/01:30am 9.2 3.4 4.2 71 2.2 NW 24 30 13 16 1020.9 - 0.0
30/01:00am 9.6 3.8 4.2 69 2.4 WNW 24 32 13 17 1020.9 - 0.0
30/12:30am 9.9 3.7 4.3 68 2.5 WNW 26 33 14 18 1020.8 - 0.0
30/12:00am 10.0 4.2 4.2 67 2.6 NW 24 32 13 17 1020.9 1021.0 0.0
 
Date/Time
EST
Temp
°C
App
Temp
°C
Dew
Point
°C
Rel
Hum
%
Delta-T
°C
Wind Press
QNH
hPa
Press
MSL
hPa
Rain since
9am
mm
Dir  Spd
km/h
Gust
km/h
Spd
kts
Gust
kts
29/11:30pm 10.3 4.5 4.2 66 2.7 WNW 24 30 13 16 1021.0 - 0.0
29/11:00pm 10.0 4.2 4.2 67 2.6 WNW 24 33 13 18 1020.8 - 0.0
29/10:30pm 10.0 4.2 4.2 67 2.6 NW 24 30 13 16 1020.3 - 0.0
29/10:00pm 10.2 4.3 4.1 66 2.7 WNW 24 33 13 18 1020.3 - 0.0
29/09:30pm 9.9 4.0 4.1 67 2.6 NW 24 32 13 17 1020.1 - 0.0
29/09:00pm 10.0 3.8 4.2 67 2.6 WNW 26 37 14 20 1020.1 1020.2 0.0
29/08:30pm 10.2 3.6 4.1 66 2.7 WNW 28 35 15 19 1019.8 - 0.0
29/08:00pm 10.4 3.8 4.1 65 2.8 WNW 28 39 15 21 1019.2 - 0.0
29/07:30pm 10.4 3.8 4.1 65 2.8 WNW 28 35 15 19 1019.1 - 0.0
29/07:00pm 10.8 4.2 4.3 64 2.9 WNW 28 35 15 19 1018.9 - 0.0
29/06:30pm 10.9 4.3 4.1 63 3.0 WNW 28 37 15 20 1018.6 - 0.0
29/06:00pm 11.1 4.9 4.1 62 3.1 WNW 26 33 14 18 1018.3 1018.4 0.0
29/05:30pm 11.6 4.6 3.9 59 3.5 WNW 30 41 16 22 1017.9 - 0.0
29/05:00pm 12.4 4.4 3.9 56 3.8 WNW 35 46 19 25 1017.7 - 0.0
29/04:30pm 13.4 5.4 3.8 52 4.4 WNW 35 46 19 25 1017.6 - 0.0
29/03:58pm 14.2 6.5 3.4 48 4.9 W 33 52 18 28 1017.3 - 0.0
29/03:30pm 15.2 8.1 3.7 46 5.3 W 30 39 16 21 1017.2 - 0.0
29/03:00pm 15.6 10.0 3.4 44 5.6 NW 22 33 12 18 1017.1 1017.2 0.0
29/02:30pm 15.4 9.4 3.5 45 5.5 WNW 24 33 13 18 1017.2 - 0.0
29/02:21pm 15.5 8.4 3.3 44 5.6 WNW 30 48 16 26 1016.7 - 0.0
29/02:00pm 15.3 6.9 3.5 45 5.4 WNW 37 50 20 27 1016.9 - 0.0
29/01:30pm 15.3 9.7 3.5 45 5.4 WNW 22 39 12 21 1017.9 - 0.0
29/01:00pm 16.0 10.0 3.4 43 5.8 WNW 24 37 13 20 1018.1 - 0.0
29/12:30pm 16.2 9.9 3.9 44 5.7 WNW 26 39 14 21 1018.1 - 0.0
29/12:19pm 15.5 8.3 3.0 43 5.7 WNW 30 50 16 27 1018.3 - 0.0
29/12:00pm 15.3 7.8 3.5 45 5.4 WNW 32 44 17 24 1018.6 1018.7 0.0
29/11:30am 14.8 9.2 3.3 46 5.2 WNW 22 30 12 16 1019.4 - 0.0
29/11:00am 14.0 8.1 3.8 50 4.7 WNW 24 35 13 19 1019.9 - 0.0
29/10:30am 13.4 8.5 4.0 53 4.3 NW 19 30 10 16 1020.5 - 0.0
29/10:00am 12.6 7.6 3.5 54 4.1 NW 19 26 10 14 1021.0 - 0.0
29/09:30am 11.7 7.1 3.7 58 3.6 WNW 17 28 9 15 1021.3 - 0.0
29/09:00am 10.6 5.5 3.9 63 3.0 NW 20 32 11 17 1021.2 1021.3 0.0
29/08:30am 9.5 4.3 3.7 67 2.5 NNW 20 28 11 15 1021.2 - 0.0
29/08:00am 8.5 3.0 3.8 72 2.0 NW 22 30 12 16 1021.7 - 0.0
29/07:30am 7.8 2.6 3.7 75 1.8 NW 20 28 11 15 1021.8 - 0.0
29/07:00am 7.0 2.4 3.6 79 1.5 NW 17 24 9 13 1021.8 - 0.0
29/06:30am 6.8 2.5 3.4 79 1.4 NW 15 22 8 12 1021.7 - 0.0
29/06:00am 6.9 1.3 3.3 78 1.5 NW 22 28 12 15 1021.5 1021.6 0.0
29/05:30am 6.9 0.9 3.3 78 1.5 NW 24 30 13 16 1021.4 - 0.0
29/05:00am 7.0 0.6 3.3 77 1.6 NW 26 37 14 20 1021.2 - 0.0
29/04:30am 7.5 1.1 3.2 74 1.8 WNW 26 32 14 17 1021.1 - 0.0
29/04:00am 7.6 1.2 3.1 73 1.9 WNW 26 33 14 18 1021.1 - 0.0
29/03:30am 8.0 1.2 3.3 72 2.0 WNW 28 35 15 19 1021.2 - 0.0
29/03:00am 7.8 1.8 3.3 73 1.9 NW 24 30 13 16 1021.4 1021.5 0.0
29/02:30am 8.3 1.9 3.2 70 2.2 WNW 26 33 14 18 1021.6 - 0.0
29/02:00am 8.2 2.2 3.1 70 2.2 NW 24 33 13 18 1021.7 - 0.0
29/01:30am 8.4 2.4 3.1 69 2.3 NW 24 33 13 18 1021.8 - 0.0
29/01:00am 8.6 1.8 3.0 68 2.4 WNW 28 35 15 19 1021.6 - 0.0
29/12:30am 8.8 1.9 2.8 66 2.6 WNW 28 37 15 20 1021.9 - 0.0
29/12:00am 8.8 1.9 2.8 66 2.5 WNW 28 35 15 19 1021.8 1021.9 0.0
 
Date/Time
EST
Temp
°C
App
Temp
°C
Dew
Point
°C
Rel
Hum
%
Delta-T
°C
Wind Press
QNH
hPa
Press
MSL
hPa
Rain since
9am
mm
Dir  Spd
km/h
Gust
km/h
Spd
kts
Gust
kts
28/11:30pm 9.1 1.5 2.9 65 2.7 WNW 32 41 17 22 1021.9 - 0.0
28/11:00pm 9.5 2.3 3.0 64 2.8 NW 30 41 16 22 1021.8 - 0.0
28/10:30pm 9.5 2.3 3.0 64 2.8 NW 30 43 16 23 1021.7 - 0.0
28/10:00pm 9.9 2.7 3.2 63 2.9 WNW 30 39 16 21 1021.8 - 0.0
28/09:30pm 10.1 3.0 3.4 63 2.9 WNW 30 41 16 22 1021.8 - 0.0
28/09:00pm 10.3 3.2 3.3 62 3.0 WNW 30 43 16 23 1021.8 1021.9 0.0
28/08:30pm 10.3 3.5 3.3 62 3.1 NW 28 37 15 20 1021.8 - 0.0
28/08:00pm 10.6 3.9 3.4 61 3.2 NW 28 39 15 21 1021.6 - 0.0
28/07:30pm 11.0 4.3 3.5 60 3.3 WNW 28 37 15 20 1021.5 - 0.0
28/07:00pm 11.1 4.4 3.6 60 3.3 WNW 28 39 15 21 1021.3 - 0.0
28/06:30pm 11.1 4.8 3.9 61 3.2 NW 26 37 14 20 1020.8 - 0.0
28/06:00pm 11.4 5.5 3.9 60 3.3 WNW 24 33 13 18 1020.5 1020.6 0.0
28/05:30pm 11.8 5.5 3.8 58 3.6 WNW 26 35 14 19 1020.4 - 0.0
28/05:00pm 12.7 6.4 3.9 55 4.0 WNW 26 44 14 24 1020.2 - 0.0
28/04:30pm 13.5 7.6 3.8 52 4.4 WNW 24 39 13 21 1020.1 - 0.0
28/04:00pm 14.2 7.2 3.9 50 4.7 WNW 30 41 16 22 1020.0 - 0.0
28/03:30pm 15.0 8.8 4.1 48 5.1 WNW 26 41 14 22 1020.0 - 0.0
28/03:00pm 15.9 11.3 3.7 44 5.6 WNW 17 28 9 15 1019.9 1020.0 0.0
28/02:30pm 16.5 11.7 4.5 45 5.7 WNW 19 26 10 14 1019.9 - 0.0
28/02:00pm 16.6 10.3 3.6 42 6.0 W 26 33 14 18 1019.7 - 0.0
28/01:30pm 16.4 10.0 3.1 41 6.1 WNW 26 37 14 20 1019.9 - 0.0
28/01:00pm 16.5 11.5 4.5 45 5.7 W 20 30 11 16 1020.3 - 0.0
28/12:30pm 15.9 11.5 4.6 47 5.3 NNW 17 24 9 13 1021.0 - 0.0
28/12:00pm 14.7 9.5 3.8 48 5.0 NNW 20 28 11 15 1021.4 1021.5 0.0
28/11:30am 14.1 7.4 3.8 50 4.7 NW 28 35 15 19 1022.2 - 0.0
28/11:00am 13.4 7.4 3.5 51 4.5 NW 24 37 13 20 1022.4 - 0.0
28/10:30am 12.9 6.6 3.6 53 4.2 NW 26 35 14 19 1023.1 - 0.0

Latest Capital City Observations: Canberra | Sydney | Melbourne | Brisbane | Adelaide | Perth | Hobart | Darwin

Other Formats:

Comma delimited format used in spreadsheet applications
http://www.bom.gov.au/fwo/IDN60903/IDN60903.94750.axf

JavaScript Object Notation format (JSON) in row-major order
http://www.bom.gov.au/fwo/IDN60903/IDN60903.94750.json